createdAt,value
2023-01-29T00:00:25.213Z,8.20
2023-01-29T00:02:52.169Z,7.70
2023-01-29T00:05:27.777Z,8.23
2023-01-29T00:07:56.609Z,7.43
2023-01-29T00:10:27.212Z,7.63
2023-01-29T00:12:54.166Z,6.88
2023-01-29T00:15:21.259Z,7.20
2023-01-29T00:17:48.061Z,7.33
2023-01-29T00:20:15.880Z,7.47
2023-01-29T00:25:10.010Z,7.18
2023-01-29T00:27:37.243Z,6.93
2023-01-29T00:30:12.900Z,7.28
2023-01-29T00:32:40.665Z,7.68
2023-01-29T00:35:08.856Z,7.47
2023-01-29T00:37:35.756Z,7.40
2023-01-29T00:40:02.952Z,7.47
2023-01-29T00:43:08.291Z,7.32
2023-01-29T00:45:38.897Z,8.38
2023-01-29T00:48:06.578Z,8.07
2023-01-29T00:50:33.510Z,7.70
2023-01-29T00:53:00.327Z,8.43
2023-01-29T00:55:27.302Z,8.32
2023-01-29T00:57:54.247Z,8.65
2023-01-29T01:00:21.361Z,8.88
2023-01-29T01:03:06.718Z,8.40
2023-01-29T01:05:34.947Z,8.48
2023-01-29T01:08:01.885Z,8.60
2023-01-29T01:10:32.212Z,8.88
2023-01-29T01:13:06.853Z,9.60
2023-01-29T01:15:39.666Z,8.80
2023-01-29T01:18:06.733Z,8.73
2023-01-29T01:20:35.664Z,9.60
2023-01-29T01:23:03.304Z,8.98
2023-01-29T01:25:30.110Z,9.50
2023-01-29T01:30:26.788Z,8.70
2023-01-29T01:32:53.879Z,9.05
2023-01-29T01:35:20.808Z,8.80
2023-01-29T01:37:47.755Z,9.57
2023-01-29T01:40:21.354Z,9.32
2023-01-29T01:42:50.280Z,9.23
2023-01-29T01:45:35.492Z,9.35
2023-01-29T01:48:22.955Z,9.50
2023-01-29T01:50:53.277Z,9.88
2023-01-29T01:53:28.577Z,9.70
2023-01-29T01:56:00.161Z,9.85
2023-01-29T01:58:31.856Z,9.70
2023-01-29T02:00:58.849Z,9.27
2023-01-29T02:03:46.748Z,9.55
2023-01-29T02:06:31.953Z,9.48
2023-01-29T02:09:26.134Z,9.82
2023-01-29T02:11:53.023Z,9.48
2023-01-29T02:14:20.195Z,9.35
2023-01-29T02:16:47.271Z,9.77
2023-01-29T02:19:49.342Z,9.68
2023-01-29T02:22:45.982Z,9.68
2023-01-29T02:25:32.207Z,9.63
2023-01-29T02:28:29.798Z,9.98
2023-01-29T02:34:06.663Z,9.45
2023-01-29T02:37:02.999Z,9.75
2023-01-29T02:39:44.742Z,9.77
2023-01-29T02:42:31.151Z,9.70
2023-01-29T02:45:12.477Z,9.98
2023-01-29T02:48:00.631Z,9.52
2023-01-29T02:50:49.272Z,10.77
2023-01-29T02:53:21.612Z,9.95
2023-01-29T02:55:48.428Z,9.70
2023-01-29T02:58:35.606Z,9.73
2023-01-29T03:01:11.393Z,10.10
2023-01-29T03:03:45.916Z,10.30
2023-01-29T03:06:26.173Z,10.35
2023-01-29T03:08:58.928Z,10.48
2023-01-29T03:11:35.993Z,10.75
2023-01-29T03:14:19.082Z,10.65
2023-01-29T03:16:50.362Z,10.30
2023-01-29T03:19:40.944Z,10.80
2023-01-29T03:22:20.833Z,9.70
2023-01-29T03:25:16.019Z,10.13
2023-01-29T03:28:11.953Z,10.18
2023-01-29T03:33:55.114Z,10.70
2023-01-29T03:36:45.612Z,11.48
2023-01-29T03:39:15.490Z,10.75
2023-01-29T03:41:55.928Z,10.73
2023-01-29T03:45:02.040Z,10.60
2023-01-29T03:48:05.329Z,10.55
2023-01-29T03:51:16.513Z,10.40
2023-01-29T03:54:28.772Z,10.40
2023-01-29T03:57:18.469Z,10.27
2023-01-29T03:59:59.234Z,11.13
2023-01-29T04:02:47.106Z,11.25
2023-01-29T04:05:19.839Z,10.95
2023-01-29T04:08:15.161Z,10.65
2023-01-29T04:10:45.036Z,12.27
2023-01-29T04:13:14.923Z,12.25
2023-01-29T04:15:53.224Z,11.63
2023-01-29T04:18:29.371Z,12.13
2023-01-29T04:21:07.295Z,11.90
2023-01-29T04:23:34.480Z,11.95
2023-01-29T04:26:32.804Z,11.60
2023-01-29T04:29:48.285Z,12.20
2023-01-29T04:32:39.434Z,12.25
2023-01-29T04:35:09.230Z,11.68
2023-01-29T04:37:51.052Z,11.70
2023-01-29T04:40:30.745Z,12.45
2023-01-29T04:43:15.750Z,11.60
2023-01-29T04:46:18.488Z,12.60
2023-01-29T04:48:48.365Z,11.98
2023-01-29T04:51:34.054Z,12.60
2023-01-29T04:54:29.229Z,12.98
2023-01-29T04:56:58.863Z,12.68
2023-01-29T04:59:32.918Z,12.45
2023-01-29T05:02:02.414Z,11.77
2023-01-29T05:04:32.780Z,12.55
2023-01-29T05:07:04.717Z,12.23
2023-01-29T05:09:33.427Z,13.05
2023-01-29T05:12:01.765Z,13.02
2023-01-29T05:14:30.606Z,13.00
2023-01-29T05:17:02.249Z,13.13
2023-01-29T05:19:29.092Z,13.15
2023-01-29T05:21:56.306Z,13.57
2023-01-29T05:24:25.377Z,13.52
2023-01-29T05:27:13.278Z,14.27
2023-01-29T05:29:49.227Z,14.27
2023-01-29T05:32:16.580Z,14.02
2023-01-29T05:34:43.341Z,13.25
2023-01-29T05:37:10.681Z,13.02
2023-01-29T05:39:37.491Z,13.93
2023-01-29T05:42:04.468Z,13.50
2023-01-29T05:44:31.497Z,14.38
2023-01-29T05:46:58.490Z,13.63
2023-01-29T05:49:25.325Z,14.02
2023-01-29T05:51:52.546Z,14.90
2023-01-29T05:54:19.303Z,12.32
2023-01-29T05:56:46.098Z,15.70
2023-01-29T05:59:13.298Z,16.67
2023-01-29T06:01:40.156Z,16.90
2023-01-29T06:04:07.014Z,15.70
2023-01-29T06:06:33.838Z,16.13
2023-01-29T06:09:00.631Z,16.52
2023-01-29T06:11:27.514Z,16.77
2023-01-29T06:13:54.891Z,17.55
2023-01-29T06:16:21.745Z,17.30
2023-01-29T06:18:48.588Z,18.05
2023-01-29T06:21:15.511Z,17.63
2023-01-29T06:23:42.571Z,18.33
2023-01-29T06:26:12.691Z,17.67
2023-01-29T06:28:39.957Z,18.48
2023-01-29T06:31:37.201Z,17.60
2023-01-29T06:33:55.063Z,18.63
2023-01-29T06:36:21.845Z,18.50
2023-01-29T06:38:48.614Z,17.42
2023-01-29T06:41:18.069Z,18.35
2023-01-29T06:43:45.878Z,17.85
2023-01-29T06:46:12.646Z,18.50
2023-01-29T06:48:39.560Z,17.70
2023-01-29T06:51:08.294Z,18.15
2023-01-29T06:53:36.361Z,17.83
2023-01-29T06:58:30.601Z,18.35
2023-01-29T07:01:08.748Z,18.93
2023-01-29T07:03:35.862Z,18.40
2023-01-29T07:06:03.001Z,17.60
2023-01-29T07:08:30.137Z,19.13
2023-01-29T07:11:01.632Z,17.42
2023-01-29T07:13:29.075Z,18.38
2023-01-29T07:16:00.375Z,15.05
2023-01-29T07:18:28.231Z,18.67
2023-01-29T07:20:55.175Z,17.75
2023-01-29T07:23:22.635Z,19.85
2023-01-29T07:25:52.310Z,18.83
2023-01-29T07:28:20.509Z,18.35
2023-01-29T07:30:47.598Z,18.77
2023-01-29T07:33:17.293Z,17.70
2023-01-29T07:35:44.413Z,19.05
2023-01-29T07:38:11.965Z,19.50
2023-01-29T07:40:38.859Z,18.48
2023-01-29T07:43:07.481Z,18.45
2023-01-29T07:45:36.824Z,18.75
2023-01-29T07:48:12.485Z,18.80
2023-01-29T07:50:40.491Z,19.33
2023-01-29T07:55:34.145Z,19.08
2023-01-29T07:58:03.677Z,19.35
2023-01-29T08:00:42.095Z,19.65
2023-01-29T08:03:16.203Z,19.17
2023-01-29T08:05:43.936Z,18.77
2023-01-29T08:08:10.780Z,19.52
2023-01-29T08:10:39.695Z,19.45
2023-01-29T08:13:07.611Z,18.98
2023-01-29T08:15:36.628Z,18.25
2023-01-29T08:18:07.330Z,18.20
2023-01-29T08:20:37.052Z,18.92
2023-01-29T08:23:06.505Z,19.23
2023-01-29T08:25:34.369Z,18.48
2023-01-29T08:28:01.907Z,18.60
2023-01-29T08:30:30.994Z,18.98
2023-01-29T08:32:58.011Z,19.23
2023-01-29T08:35:25.541Z,18.85
2023-01-29T08:37:58.284Z,22.65
2023-01-29T08:40:26.398Z,19.92
2023-01-29T08:45:19.847Z,16.98
2023-01-29T08:47:50.284Z,18.13
2023-01-29T08:50:18.174Z,18.13
2023-01-29T08:55:13.356Z,17.92
2023-01-29T08:57:40.202Z,18.42
2023-01-29T09:00:09.457Z,17.27
2023-01-29T09:02:37.040Z,17.17
2023-01-29T09:05:04.132Z,17.95
2023-01-29T09:07:31.228Z,19.63
2023-01-29T09:09:58.021Z,16.95
2023-01-29T09:12:24.911Z,17.25
2023-01-29T09:14:51.724Z,16.23
2023-01-29T09:17:18.597Z,17.20
2023-01-29T09:19:45.606Z,17.02
2023-01-29T09:22:12.453Z,16.77
2023-01-29T09:24:39.523Z,16.92
2023-01-29T09:27:06.366Z,16.50
2023-01-29T09:29:35.790Z,15.10
2023-01-29T09:32:04.906Z,14.52
2023-01-29T09:34:31.921Z,14.80
2023-01-29T09:36:58.925Z,14.10
2023-01-29T09:39:25.699Z,13.70
2023-01-29T09:42:01.607Z,13.63
2023-01-29T09:44:43.680Z,12.70
2023-01-29T09:47:15.574Z,13.85
2023-01-29T09:49:48.575Z,13.02
2023-01-29T09:52:24.204Z,11.63
2023-01-29T09:55:06.081Z,11.52
2023-01-29T09:57:38.904Z,11.70
2023-01-29T10:00:06.560Z,11.80
2023-01-29T10:02:50.541Z,17.70
2023-01-29T10:05:25.865Z,12.88
2023-01-29T10:08:24.736Z,11.30
2023-01-29T10:11:05.021Z,11.50
2023-01-29T10:13:48.026Z,10.93
2023-01-29T10:16:26.596Z,10.95
2023-01-29T10:19:02.361Z,10.77
2023-01-29T10:22:17.159Z,10.63
2023-01-29T10:24:55.830Z,10.52
2023-01-29T10:27:23.469Z,10.07
2023-01-29T10:29:54.359Z,9.48
2023-01-29T10:32:25.601Z,9.77
2023-01-29T10:35:18.174Z,8.95
2023-01-29T10:37:45.661Z,10.18
2023-01-29T10:40:27.249Z,9.15
2023-01-29T10:43:14.243Z,9.25
2023-01-29T10:45:56.215Z,9.00
2023-01-29T10:48:40.487Z,9.07
2023-01-29T10:51:30.063Z,9.27
2023-01-29T10:54:00.161Z,9.15
2023-01-29T10:56:45.761Z,8.93
2023-01-29T10:59:33.831Z,8.57
2023-01-29T11:02:08.333Z,9.13
2023-01-29T11:04:39.162Z,9.32
2023-01-29T11:07:06.192Z,8.35
2023-01-29T11:09:57.804Z,8.50
2023-01-29T11:12:30.866Z,8.88
2023-01-29T11:15:30.699Z,8.40
2023-01-29T11:18:11.475Z,8.55
2023-01-29T11:20:38.532Z,8.70
2023-01-29T11:23:07.565Z,9.00
2023-01-29T11:25:34.650Z,8.80
2023-01-29T11:28:03.139Z,8.60
2023-01-29T11:30:38.613Z,8.77
2023-01-29T11:33:06.130Z,9.32
2023-01-29T11:35:33.342Z,8.75
2023-01-29T11:38:21.583Z,7.93
2023-01-29T11:40:48.608Z,8.48
2023-01-29T11:43:18.341Z,8.73
2023-01-29T11:45:45.795Z,8.55
2023-01-29T11:48:23.869Z,8.60
2023-01-29T11:51:00.661Z,9.13
2023-01-29T11:53:50.884Z,8.57
2023-01-29T11:56:23.781Z,8.45
2023-01-29T11:58:53.552Z,9.23
2023-01-29T12:01:51.915Z,8.90
2023-01-29T12:04:22.698Z,9.35
2023-01-29T12:06:55.711Z,9.20
2023-01-29T12:09:29.235Z,8.95
2023-01-29T12:12:16.781Z,9.30
2023-01-29T12:14:44.717Z,9.45
2023-01-29T12:17:21.383Z,8.93
2023-01-29T12:20:01.366Z,9.77
2023-01-29T12:22:47.768Z,9.45
2023-01-29T12:25:29.775Z,9.70
2023-01-29T12:28:10.620Z,9.30
2023-01-29T12:30:59.204Z,8.85
2023-01-29T12:33:31.830Z,9.77
2023-01-29T12:36:10.832Z,9.07
2023-01-29T12:38:37.901Z,9.18
2023-01-29T12:41:46.177Z,9.18
2023-01-29T12:44:16.446Z,8.85
2023-01-29T12:46:56.793Z,9.45
2023-01-29T12:49:58.694Z,9.07
2023-01-29T12:52:33.298Z,9.10
2023-01-29T12:55:07.935Z,9.07
2023-01-29T12:57:42.479Z,9.05
2023-01-29T13:00:22.503Z,8.80
2023-01-29T13:03:06.208Z,8.60
2023-01-29T13:05:45.726Z,8.73
2023-01-29T13:08:36.793Z,9.20
2023-01-29T13:11:10.833Z,8.10
2023-01-29T13:13:45.368Z,9.07
2023-01-29T13:16:15.822Z,8.52
2023-01-29T13:19:09.044Z,7.93
2023-01-29T13:21:45.723Z,8.60
2023-01-29T13:24:18.812Z,9.32
2023-01-29T13:26:47.223Z,8.23
2023-01-29T13:29:26.654Z,9.05
2023-01-29T13:32:03.622Z,8.98
2023-01-29T13:34:36.520Z,9.75
2023-01-29T13:37:18.241Z,8.82
2023-01-29T13:39:52.407Z,9.48
2023-01-29T13:42:20.968Z,8.95
2023-01-29T13:44:56.599Z,10.50
2023-01-29T13:47:37.041Z,10.40
2023-01-29T13:50:18.562Z,10.52
2023-01-29T13:52:52.405Z,9.80
2023-01-29T13:55:21.130Z,10.80
2023-01-29T13:57:53.981Z,10.60
2023-01-29T14:00:22.347Z,9.32
2023-01-29T14:02:55.211Z,11.77
2023-01-29T14:05:31.222Z,11.25
2023-01-29T14:08:14.279Z,11.05
2023-01-29T14:10:43.417Z,11.30
2023-01-29T14:13:21.257Z,12.52
2023-01-29T14:15:56.908Z,11.35
2023-01-29T14:18:26.204Z,11.73
2023-01-29T14:20:59.916Z,12.73
2023-01-29T14:23:36.446Z,12.52
2023-01-29T14:26:06.193Z,12.05
2023-01-29T14:28:34.778Z,12.40
2023-01-29T14:31:02.886Z,13.35
2023-01-29T14:33:42.547Z,12.60
2023-01-29T14:36:14.184Z,12.77
2023-01-29T14:38:51.148Z,13.65
2023-01-29T14:41:22.367Z,12.93
2023-01-29T14:43:49.322Z,13.32
2023-01-29T14:46:34.214Z,13.48
2023-01-29T14:49:01.357Z,13.55
2023-01-29T14:51:34.649Z,13.07
2023-01-29T14:54:25.454Z,13.60
2023-01-29T14:57:02.341Z,13.40
2023-01-29T14:59:49.239Z,13.60
2023-01-29T15:02:33.078Z,13.17
2023-01-29T15:05:02.386Z,13.95
2023-01-29T15:07:45.038Z,14.13
2023-01-29T15:10:33.164Z,13.60
2023-01-29T15:13:23.107Z,14.27
2023-01-29T15:15:56.800Z,13.45
2023-01-29T15:18:33.278Z,15.05
2023-01-29T15:21:15.392Z,14.65
2023-01-29T15:23:43.371Z,15.07
2023-01-29T15:26:21.255Z,15.00
2023-01-29T15:31:31.283Z,15.82
2023-01-29T15:34:02.937Z,15.73
2023-01-29T15:36:31.581Z,15.82
2023-01-29T15:39:22.615Z,16.90
2023-01-29T15:41:52.143Z,15.88
2023-01-29T15:44:21.565Z,16.45
2023-01-29T15:46:52.821Z,16.58
2023-01-29T15:49:40.695Z,15.88
2023-01-29T15:52:28.239Z,16.85
2023-01-29T15:54:56.874Z,16.80
2023-01-29T15:57:36.721Z,17.55
2023-01-29T16:00:05.123Z,17.27
2023-01-29T16:02:39.100Z,16.23
2023-01-29T16:05:11.919Z,17.33
2023-01-29T16:07:39.266Z,16.92
2023-01-29T16:10:10.791Z,17.42
2023-01-29T16:12:39.398Z,18.08
2023-01-29T16:15:19.239Z,17.75
2023-01-29T16:18:00.126Z,17.10
2023-01-29T16:20:38.466Z,17.58
2023-01-29T16:23:07.052Z,17.08
2023-01-29T16:25:38.513Z,17.55
2023-01-29T16:28:08.005Z,17.55
2023-01-29T16:30:35.337Z,17.67
2023-01-29T16:33:06.133Z,18.33
2023-01-29T16:35:35.083Z,17.27
2023-01-29T16:38:07.315Z,16.85
2023-01-29T16:40:37.506Z,17.20
2023-01-29T16:43:28.342Z,17.60
2023-01-29T16:46:04.941Z,15.95
2023-01-29T16:48:33.917Z,16.50
2023-01-29T16:51:31.054Z,16.23
2023-01-29T16:54:02.578Z,16.58
2023-01-29T16:56:32.527Z,16.40
2023-01-29T16:59:00.812Z,16.50
2023-01-29T17:01:29.663Z,16.77
2023-01-29T17:04:01.657Z,16.48
2023-01-29T17:06:31.369Z,15.40
2023-01-29T17:08:58.594Z,15.38
2023-01-29T17:11:31.614Z,16.23
2023-01-29T17:13:59.278Z,15.65
2023-01-29T17:16:32.528Z,16.10
2023-01-29T17:19:00.262Z,14.90
2023-01-29T17:21:28.799Z,15.00
2023-01-29T17:23:56.168Z,15.32
2023-01-29T17:26:24.588Z,15.25
2023-01-29T17:28:52.685Z,14.27
2023-01-29T17:31:19.695Z,14.75
2023-01-29T17:33:47.975Z,14.17
2023-01-29T17:38:43.311Z,14.02
2023-01-29T17:41:29.778Z,14.45
2023-01-29T17:43:57.338Z,14.13
2023-01-29T17:46:24.110Z,14.05
2023-01-29T17:48:51.074Z,14.00
2023-01-29T17:51:18.738Z,13.63
2023-01-29T17:53:47.755Z,12.88
2023-01-29T17:56:32.601Z,13.25
2023-01-29T17:58:59.596Z,13.57
2023-01-29T18:01:26.441Z,12.80
2023-01-29T18:04:18.733Z,12.93
2023-01-29T18:06:48.257Z,12.85
2023-01-29T18:09:18.729Z,13.02
2023-01-29T18:11:46.420Z,12.60
2023-01-29T18:14:14.684Z,13.55
2023-01-29T18:16:45.011Z,12.23
2023-01-29T18:19:16.979Z,13.05
2023-01-29T18:21:43.894Z,13.13
2023-01-29T18:24:10.837Z,12.23
2023-01-29T18:26:38.180Z,12.38
2023-01-29T18:29:05.321Z,12.15
2023-01-29T18:31:32.718Z,12.70
2023-01-29T18:33:59.879Z,12.23
2023-01-29T18:36:26.730Z,11.50
2023-01-29T18:38:53.953Z,12.43
2023-01-29T18:41:20.828Z,11.88
2023-01-29T18:43:47.839Z,11.45
2023-01-29T18:46:15.055Z,11.20
2023-01-29T18:48:43.178Z,10.55
2023-01-29T18:51:18.298Z,11.60
2023-01-29T18:54:31.924Z,11.50
2023-01-29T18:57:13.105Z,11.52
2023-01-29T18:59:44.828Z,11.32
2023-01-29T19:02:17.409Z,10.68
2023-01-29T19:04:45.687Z,11.05
2023-01-29T19:07:14.643Z,10.75
2023-01-29T19:09:42.232Z,10.80
2023-01-29T19:14:37.252Z,9.52
2023-01-29T19:17:04.817Z,9.88
2023-01-29T19:19:35.930Z,10.25
2023-01-29T19:22:05.079Z,10.40
2023-01-29T19:24:36.480Z,9.73
2023-01-29T19:27:04.891Z,9.30
2023-01-29T19:29:31.906Z,9.63
2023-01-29T19:31:58.852Z,9.43
2023-01-29T19:34:26.098Z,8.95
2023-01-29T19:36:52.983Z,8.60
2023-01-29T19:39:19.856Z,8.43
2023-01-29T19:41:47.060Z,8.38
2023-01-29T19:44:14.080Z,8.50
2023-01-29T19:46:40.923Z,8.35
2023-01-29T19:49:07.919Z,8.20
2023-01-29T19:51:34.926Z,8.35
2023-01-29T19:54:02.491Z,8.25
2023-01-29T19:56:29.534Z,8.13
2023-01-29T19:58:57.524Z,7.82
2023-01-29T20:04:00.936Z,7.30
2023-01-29T20:06:30.944Z,8.07
2023-01-29T20:08:58.189Z,7.53
2023-01-29T20:11:25.416Z,8.13
2023-01-29T20:13:53.526Z,7.53
2023-01-29T20:18:47.913Z,7.90
2023-01-29T20:21:17.123Z,7.68
2023-01-29T20:23:45.866Z,7.90
2023-01-29T20:26:15.603Z,8.32
2023-01-29T20:28:43.319Z,7.93
2023-01-29T20:31:10.473Z,7.63
2023-01-29T20:33:39.309Z,8.02
2023-01-29T20:36:09.038Z,7.93
2023-01-29T20:38:36.282Z,7.97
2023-01-29T20:41:17.296Z,7.97
2023-01-29T20:43:45.613Z,8.55
2023-01-29T20:46:12.718Z,8.57
2023-01-29T20:48:40.115Z,9.43
2023-01-29T20:51:12.404Z,8.65
2023-01-29T20:53:41.219Z,8.20
2023-01-29T20:56:09.358Z,8.52
2023-01-29T20:58:38.242Z,8.25
2023-01-29T21:01:12.841Z,9.05
2023-01-29T21:03:40.230Z,9.27
2023-01-29T21:06:10.414Z,8.95
2023-01-29T21:08:38.834Z,9.27
2023-01-29T21:11:07.645Z,8.60
2023-01-29T21:13:34.581Z,8.98
2023-01-29T21:16:02.338Z,9.27
2023-01-29T21:18:29.393Z,9.32
2023-01-29T21:20:56.475Z,8.50
2023-01-29T21:23:23.559Z,9.10
2023-01-29T21:25:50.364Z,9.48
2023-01-29T21:28:17.534Z,9.73
2023-01-29T21:30:44.896Z,9.67
2023-01-29T21:33:11.926Z,9.32
2023-01-29T21:35:38.802Z,9.65
2023-01-29T21:38:05.808Z,8.73
2023-01-29T21:40:32.691Z,9.32
2023-01-29T21:43:11.826Z,10.13
2023-01-29T21:45:39.510Z,9.43
2023-01-29T21:48:06.928Z,8.95
2023-01-29T21:50:33.889Z,9.23
2023-01-29T21:53:01.701Z,9.32
2023-01-29T21:55:28.863Z,9.40
2023-01-29T21:57:55.756Z,9.07
2023-01-29T22:00:22.921Z,9.23
2023-01-29T22:02:51.240Z,8.93
2023-01-29T22:05:20.138Z,9.13
2023-01-29T22:07:50.801Z,9.10
2023-01-29T22:10:19.604Z,8.95
2023-01-29T22:12:47.588Z,9.25
2023-01-29T22:15:15.309Z,8.88
2023-01-29T22:17:45.429Z,9.32
2023-01-29T22:20:14.232Z,9.38
2023-01-29T22:22:41.318Z,8.98
2023-01-29T22:25:08.764Z,8.37
2023-01-29T22:27:35.668Z,9.68
2023-01-29T22:30:02.745Z,9.20
2023-01-29T22:32:32.101Z,9.32
2023-01-29T22:34:59.064Z,8.23
2023-01-29T22:37:25.905Z,8.45
2023-01-29T22:39:52.742Z,8.57
2023-01-29T22:42:20.809Z,8.77
2023-01-29T22:44:50.237Z,8.55
2023-01-29T22:47:17.160Z,8.98
2023-01-29T22:49:45.508Z,8.55
2023-01-29T22:52:12.578Z,8.65
2023-01-29T22:54:43.517Z,9.18
2023-01-29T22:57:12.372Z,8.80
2023-01-29T22:59:39.983Z,8.88
2023-01-29T23:02:08.221Z,9.05
2023-01-29T23:07:02.189Z,8.43
2023-01-29T23:09:29.266Z,9.10
2023-01-29T23:11:56.107Z,9.10
2023-01-29T23:14:22.976Z,9.85
2023-01-29T23:16:49.866Z,9.80
2023-01-29T23:19:16.733Z,9.82
2023-01-29T23:21:43.682Z,9.30
2023-01-29T23:24:10.885Z,9.23
2023-01-29T23:26:56.545Z,7.88
2023-01-29T23:29:23.610Z,10.70
2023-01-29T23:31:50.486Z,9.82
2023-01-29T23:34:17.539Z,9.45
2023-01-29T23:36:44.515Z,10.13
2023-01-29T23:39:11.550Z,10.65
2023-01-29T23:41:38.563Z,10.15
2023-01-29T23:44:05.793Z,10.23
2023-01-29T23:46:32.941Z,10.00
2023-01-29T23:49:00.016Z,10.75
2023-01-29T23:51:27.014Z,10.07
2023-01-29T23:53:54.125Z,11.25
2023-01-29T23:56:21.336Z,9.93
2023-01-29T23:58:52.207Z,10.25
